createdAt,value
2018-07-20T00:01:54.645Z,67.50
2018-07-20T00:04:23.571Z,67.50
2018-07-20T00:06:52.422Z,67.90
2018-07-20T00:09:21.418Z,67.90
2018-07-20T00:11:50.327Z,67.80
2018-07-20T00:14:19.275Z,67.90
2018-07-20T00:16:48.162Z,67.90
2018-07-20T00:19:17.085Z,68.30
2018-07-20T00:21:46.040Z,68.40
2018-07-20T00:24:14.886Z,68.20
2018-07-20T00:26:43.825Z,68.20
2018-07-20T00:29:12.715Z,68.40
2018-07-20T00:31:43.404Z,68.70
2018-07-20T00:34:12.269Z,69.00
2018-07-20T00:36:41.189Z,68.60
2018-07-20T00:39:11.181Z,68.60
2018-07-20T00:41:40.528Z,68.90
2018-07-20T00:46:37.956Z,70.10
2018-07-20T00:49:06.823Z,69.30
2018-07-20T00:51:35.823Z,69.40
2018-07-20T00:54:04.770Z,69.80
2018-07-20T00:59:02.152Z,70.40
2018-07-20T01:01:31.079Z,70.60
2018-07-20T01:03:59.969Z,70.60
2018-07-20T01:06:29.000Z,70.60
2018-07-20T01:08:57.884Z,70.70
2018-07-20T01:11:26.804Z,70.70
2018-07-20T01:16:25.406Z,70.70
2018-07-20T01:21:22.788Z,70.80
2018-07-20T01:23:51.722Z,71.20
2018-07-20T01:26:20.644Z,71.90
2018-07-20T01:28:49.624Z,71.60
2018-07-20T01:31:18.596Z,71.60
2018-07-20T01:33:47.462Z,72.10
2018-07-20T01:36:17.111Z,72.20
2018-07-20T01:38:46.099Z,72.10
2018-07-20T01:41:15.003Z,72.30
2018-07-20T01:43:43.929Z,72.10
2018-07-20T01:46:12.819Z,72.00
2018-07-20T01:48:41.725Z,72.40
2018-07-20T01:51:10.579Z,72.50
2018-07-20T01:56:08.029Z,72.90
2018-07-20T01:58:36.911Z,72.90
2018-07-20T02:01:05.796Z,72.80
2018-07-20T02:03:34.748Z,72.60
2018-07-20T02:06:03.605Z,72.60
2018-07-20T02:08:32.589Z,72.50
2018-07-20T02:11:01.898Z,72.40
2018-07-20T02:13:30.799Z,72.50
2018-07-20T02:15:59.909Z,72.60
2018-07-20T02:20:57.284Z,73.10
2018-07-20T02:23:26.257Z,73.40
2018-07-20T02:25:55.171Z,73.40
2018-07-20T02:28:25.040Z,74.40
2018-07-20T02:30:53.921Z,73.60
2018-07-20T02:33:22.820Z,74.70
2018-07-20T02:35:52.466Z,74.00
2018-07-20T02:40:50.025Z,74.10
2018-07-20T02:43:18.928Z,74.30
2018-07-20T02:50:44.856Z,74.70
2018-07-20T02:53:13.708Z,74.60
2018-07-20T02:55:42.609Z,74.60
2018-07-20T02:58:11.531Z,74.60
2018-07-20T03:00:40.465Z,74.70
2018-07-20T03:03:09.328Z,74.90
2018-07-20T03:10:35.416Z,76.20
2018-07-20T03:13:04.320Z,75.30
2018-07-20T03:15:33.635Z,75.30
2018-07-20T03:18:02.539Z,75.40
2018-07-20T03:20:31.436Z,75.50
2018-07-20T03:23:00.379Z,75.50
2018-07-20T03:25:30.820Z,75.60
2018-07-20T03:27:59.727Z,75.80
2018-07-20T03:30:29.581Z,76.30
2018-07-20T03:32:58.621Z,76.80
2018-07-20T03:37:55.932Z,77.30
2018-07-20T03:40:24.836Z,76.90
2018-07-20T03:42:53.784Z,76.50
2018-07-20T03:45:22.686Z,76.50
2018-07-20T03:47:51.612Z,76.70
2018-07-20T03:50:20.533Z,76.70
2018-07-20T03:52:49.452Z,76.90
2018-07-20T03:55:18.352Z,76.90
2018-07-20T03:57:47.274Z,77.30
2018-07-20T04:00:16.677Z,77.10
2018-07-20T04:05:15.071Z,77.30
2018-07-20T04:07:43.992Z,77.00
2018-07-20T04:10:12.938Z,77.60
2018-07-20T04:12:41.817Z,77.20
2018-07-20T04:15:10.756Z,77.20
2018-07-20T04:17:43.639Z,77.10
2018-07-20T04:20:13.721Z,77.00
2018-07-20T04:22:42.749Z,76.90
2018-07-20T04:25:11.805Z,76.70
2018-07-20T04:27:40.845Z,76.60
2018-07-20T04:30:12.241Z,76.30
2018-07-20T04:32:41.277Z,76.20
2018-07-20T04:37:39.550Z,76.90
2018-07-20T04:40:08.456Z,77.90
2018-07-20T04:45:06.515Z,75.00
2018-07-20T04:47:35.408Z,72.10
2018-07-20T04:50:05.062Z,70.90
2018-07-20T04:52:34.077Z,70.20
2018-07-20T04:55:03.064Z,68.50
2018-07-20T04:57:32.012Z,68.20
2018-07-20T05:00:01.362Z,68.10
2018-07-20T05:02:30.260Z,68.50
2018-07-20T05:04:59.241Z,70.40
2018-07-20T05:07:28.164Z,69.70
2018-07-20T05:09:57.071Z,67.40
2018-07-20T05:12:27.009Z,67.30
2018-07-20T05:14:56.808Z,67.00
2018-07-20T05:19:54.365Z,67.30
2018-07-20T05:22:23.365Z,67.60
2018-07-20T05:24:52.306Z,67.20
2018-07-20T05:27:21.315Z,67.40
2018-07-20T05:29:50.274Z,67.30
2018-07-20T05:32:19.208Z,66.10
2018-07-20T05:34:48.157Z,66.30
2018-07-20T05:37:17.094Z,66.20
2018-07-20T05:47:11.910Z,65.50
2018-07-20T05:49:40.934Z,64.70
2018-07-20T05:52:10.653Z,64.60
2018-07-20T05:54:39.561Z,65.00
2018-07-20T05:57:08.549Z,64.10
2018-07-20T05:59:37.445Z,63.30
2018-07-20T06:02:06.528Z,63.50
2018-07-20T06:04:35.484Z,64.50
2018-07-20T06:07:04.511Z,64.20
2018-07-20T06:09:33.485Z,63.80
2018-07-20T06:12:02.389Z,63.30
2018-07-20T06:14:31.304Z,63.00
2018-07-20T06:17:00.760Z,61.10
2018-07-20T06:19:29.715Z,60.80
2018-07-20T06:24:27.036Z,60.30
2018-07-20T06:26:55.948Z,60.30
2018-07-20T06:29:24.849Z,60.20
2018-07-20T06:31:53.804Z,59.10
2018-07-20T06:34:22.667Z,58.40
2018-07-20T06:36:51.592Z,58.00
2018-07-20T06:39:20.479Z,57.80
2018-07-20T06:41:49.382Z,57.90
2018-07-20T06:44:21.742Z,57.30
2018-07-20T06:46:50.606Z,56.50
2018-07-20T06:49:19.685Z,56.40
2018-07-20T06:51:48.591Z,56.90
2018-07-20T06:54:17.570Z,56.60
2018-07-20T06:56:46.485Z,56.30
2018-07-20T06:59:15.400Z,55.10
2018-07-20T07:01:44.317Z,54.70
2018-07-20T07:04:13.224Z,54.30
2018-07-20T07:11:40.434Z,51.80
2018-07-20T07:14:09.307Z,52.00
2018-07-20T07:16:38.592Z,52.50
2018-07-20T07:19:07.518Z,53.10
2018-07-20T07:21:36.431Z,53.60
2018-07-20T07:24:05.370Z,53.00
2018-07-20T07:29:02.792Z,52.50
2018-07-20T07:31:31.693Z,52.80
2018-07-20T07:34:01.588Z,53.60
2018-07-20T07:36:30.513Z,54.00
2018-07-20T07:38:59.473Z,53.60
2018-07-20T07:41:28.431Z,53.20
2018-07-20T07:43:57.324Z,53.30
2018-07-20T07:46:26.265Z,53.30
2018-07-20T07:48:55.186Z,53.20
2018-07-20T07:51:24.127Z,52.40
2018-07-20T07:53:53.007Z,54.30
2018-07-20T07:56:21.920Z,53.00
2018-07-20T07:58:50.903Z,52.80
2018-07-20T08:01:19.852Z,52.80
2018-07-20T08:03:48.732Z,52.90
2018-07-20T08:06:17.600Z,53.40
2018-07-20T08:08:46.515Z,54.00
2018-07-20T08:11:15.389Z,53.10
2018-07-20T08:13:44.324Z,52.50
2018-07-20T08:16:13.557Z,53.70
2018-07-20T08:18:42.440Z,52.80
2018-07-20T08:21:11.684Z,51.40
2018-07-20T08:23:40.652Z,51.50
2018-07-20T08:26:09.508Z,51.40
2018-07-20T08:28:38.426Z,50.90
2018-07-20T08:31:07.448Z,51.20
2018-07-20T08:33:36.320Z,49.90
2018-07-20T08:36:05.263Z,49.20
2018-07-20T08:38:34.187Z,50.80
2018-07-20T08:41:03.163Z,48.70
2018-07-20T08:43:32.069Z,48.10
2018-07-20T08:46:00.993Z,48.60
2018-07-20T08:48:29.917Z,48.40
2018-07-20T08:53:27.284Z,48.80
2018-07-20T08:58:24.737Z,48.10
2018-07-20T09:00:53.617Z,47.90
2018-07-20T09:03:22.560Z,46.90
2018-07-20T09:05:51.480Z,46.90
2018-07-20T09:08:20.339Z,46.40
2018-07-20T09:10:49.257Z,45.40
2018-07-20T09:13:18.196Z,45.30
2018-07-20T09:15:47.141Z,45.10
2018-07-20T09:18:16.007Z,44.30
2018-07-20T09:20:45.014Z,43.40
2018-07-20T09:25:42.356Z,41.10
2018-07-20T09:28:11.606Z,41.00
2018-07-20T09:30:40.512Z,42.70
2018-07-20T09:33:09.402Z,39.10
2018-07-20T09:35:38.285Z,40.50
2018-07-20T09:38:07.224Z,40.10
2018-07-20T09:40:36.096Z,40.30
2018-07-20T09:43:05.035Z,40.40
2018-07-20T09:45:33.991Z,40.50
2018-07-20T09:48:02.895Z,40.90
2018-07-20T09:50:31.748Z,41.80
2018-07-20T09:53:00.680Z,40.30
2018-07-20T09:55:29.568Z,40.80
2018-07-20T09:57:58.484Z,40.00
2018-07-20T10:00:32.476Z,39.50
2018-07-20T10:03:01.422Z,38.80
2018-07-20T10:05:30.312Z,38.90
2018-07-20T10:07:59.236Z,39.30
2018-07-20T10:10:28.180Z,37.30
2018-07-20T10:12:57.147Z,38.60
2018-07-20T10:15:26.133Z,40.10
2018-07-20T10:17:55.020Z,39.00
2018-07-20T10:20:23.922Z,39.30
2018-07-20T10:22:52.869Z,38.20
2018-07-20T10:25:21.791Z,36.10
2018-07-20T10:27:50.705Z,35.30
2018-07-20T10:30:19.595Z,35.70
2018-07-20T10:32:48.521Z,34.70
2018-07-20T10:35:17.469Z,34.40
2018-07-20T10:37:46.340Z,36.50
2018-07-20T10:40:15.284Z,35.40
2018-07-20T10:42:44.247Z,34.20
2018-07-20T10:45:13.172Z,33.20
2018-07-20T10:47:42.090Z,33.20
2018-07-20T10:52:39.481Z,33.50
2018-07-20T10:55:08.423Z,32.80
2018-07-20T10:57:37.358Z,33.20
2018-07-20T11:00:06.341Z,33.30
2018-07-20T11:02:35.308Z,31.40
2018-07-20T11:05:04.292Z,32.80
2018-07-20T11:07:33.310Z,31.40
2018-07-20T11:10:03.232Z,30.90
2018-07-20T11:12:32.169Z,31.10
2018-07-20T11:15:01.070Z,30.50
2018-07-20T11:17:29.990Z,30.90
2018-07-20T11:19:58.869Z,31.20
2018-07-20T11:22:27.821Z,30.00
2018-07-20T11:24:56.768Z,29.90
2018-07-20T11:27:25.716Z,29.30
2018-07-20T11:29:54.669Z,28.50
2018-07-20T11:32:24.269Z,28.90
2018-07-20T11:34:53.194Z,29.40
2018-07-20T11:37:22.124Z,29.80
2018-07-20T11:39:51.075Z,29.00
2018-07-20T11:42:19.982Z,29.00
2018-07-20T11:44:48.943Z,28.80
2018-07-20T11:47:18.260Z,28.70
2018-07-20T11:49:47.193Z,28.40
2018-07-20T11:52:16.085Z,28.50
2018-07-20T11:54:45.025Z,28.10
2018-07-20T11:57:13.965Z,28.30
2018-07-20T11:59:42.913Z,29.50
2018-07-20T12:02:11.852Z,28.80
2018-07-20T12:04:40.940Z,28.60
2018-07-20T12:07:09.885Z,28.80
2018-07-20T12:09:39.192Z,28.70
2018-07-20T12:12:08.231Z,29.20
2018-07-20T12:14:37.215Z,28.90
2018-07-20T12:17:11.848Z,28.30
2018-07-20T12:19:41.200Z,29.80
2018-07-20T12:22:10.608Z,29.10
2018-07-20T12:24:39.777Z,29.80
2018-07-20T12:27:08.973Z,29.90
2018-07-20T12:29:37.868Z,29.40
2018-07-20T12:32:06.712Z,30.00
2018-07-20T12:34:37.003Z,29.10
2018-07-20T12:37:21.266Z,29.70
2018-07-20T12:39:50.160Z,29.70
2018-07-20T12:42:19.080Z,30.10
2018-07-20T12:44:54.130Z,30.10
2018-07-20T12:47:24.010Z,29.90
2018-07-20T12:49:52.912Z,30.80
2018-07-20T12:52:21.821Z,30.00
2018-07-20T12:54:56.022Z,29.90
2018-07-20T12:57:24.989Z,30.40
2018-07-20T12:59:53.967Z,30.50
2018-07-20T13:02:22.929Z,30.00
2018-07-20T13:05:02.609Z,31.00
2018-07-20T13:07:34.049Z,31.60
2018-07-20T13:10:03.000Z,32.00
2018-07-20T13:12:31.952Z,32.10
2018-07-20T13:15:00.864Z,33.10
2018-07-20T13:17:30.700Z,32.90
2018-07-20T13:19:59.565Z,32.60
2018-07-20T13:22:28.491Z,32.30
2018-07-20T13:24:57.427Z,33.20
2018-07-20T13:27:26.376Z,33.40
2018-07-20T13:29:55.346Z,33.30
2018-07-20T13:34:52.752Z,34.20
2018-07-20T13:37:21.660Z,34.20
2018-07-20T13:39:50.661Z,34.30
2018-07-20T13:42:19.583Z,34.60
2018-07-20T13:44:48.472Z,33.90
2018-07-20T13:49:46.050Z,35.60
2018-07-20T13:52:15.054Z,36.40
2018-07-20T13:54:44.040Z,36.60
2018-07-20T13:57:13.007Z,36.70
2018-07-20T13:59:41.909Z,37.50
2018-07-20T14:02:11.072Z,37.70
2018-07-20T14:04:40.616Z,37.90
2018-07-20T14:07:09.564Z,37.70
2018-07-20T14:09:38.672Z,38.80
2018-07-20T14:12:08.230Z,38.10
2018-07-20T14:14:37.108Z,38.70
2018-07-20T14:17:06.260Z,39.00
2018-07-20T14:19:35.131Z,39.80
2018-07-20T14:24:32.536Z,40.50
2018-07-20T14:27:01.472Z,40.70
2018-07-20T14:29:30.360Z,41.00
2018-07-20T14:31:59.341Z,40.70
2018-07-20T14:34:28.281Z,41.00
2018-07-20T14:36:57.184Z,41.40
2018-07-20T14:41:54.592Z,41.60
2018-07-20T14:44:23.472Z,42.30
2018-07-20T14:46:52.406Z,42.30
2018-07-20T14:49:21.348Z,42.10
2018-07-20T14:51:50.259Z,43.40
2018-07-20T14:54:19.192Z,43.30
2018-07-20T14:59:16.472Z,44.00
2018-07-20T15:01:45.427Z,44.50
2018-07-20T15:04:14.308Z,44.70
2018-07-20T15:06:43.256Z,44.20
2018-07-20T15:09:13.248Z,44.50
2018-07-20T15:11:42.372Z,44.80
2018-07-20T15:14:11.511Z,45.30
2018-07-20T15:16:40.420Z,46.10
2018-07-20T15:19:09.352Z,46.80
2018-07-20T15:21:38.777Z,46.20
2018-07-20T15:24:08.452Z,46.30
2018-07-20T15:26:37.337Z,46.00
2018-07-20T15:29:06.356Z,46.20
2018-07-20T15:31:35.268Z,45.50
2018-07-20T15:34:04.854Z,44.80
2018-07-20T15:36:33.895Z,44.60
2018-07-20T15:39:02.912Z,45.00
2018-07-20T15:44:00.286Z,43.20
2018-07-20T15:48:57.678Z,44.20
2018-07-20T15:51:55.486Z,43.90
2018-07-20T15:53:55.610Z,43.60
2018-07-20T15:56:24.499Z,43.50
2018-07-20T15:58:53.408Z,43.80
2018-07-20T16:01:22.268Z,43.90
2018-07-20T16:03:51.191Z,44.90
2018-07-20T16:06:25.408Z,44.50
2018-07-20T16:08:54.734Z,44.70
2018-07-20T16:11:23.905Z,45.20
2018-07-20T16:13:52.833Z,45.10
2018-07-20T16:16:21.776Z,44.60
2018-07-20T16:18:50.708Z,45.10
2018-07-20T16:21:19.640Z,43.70
2018-07-20T16:23:48.552Z,43.80
2018-07-20T16:26:17.506Z,44.00
2018-07-20T16:28:46.472Z,44.50
2018-07-20T16:31:16.236Z,45.10
2018-07-20T16:33:45.132Z,46.90
2018-07-20T16:36:13.976Z,46.60
2018-07-20T16:38:42.969Z,46.20
2018-07-20T16:41:11.884Z,46.10
2018-07-20T16:43:41.632Z,46.50
2018-07-20T16:46:10.583Z,47.40
2018-07-20T16:48:39.564Z,51.50
2018-07-20T16:51:08.549Z,52.60
2018-07-20T16:53:38.031Z,53.50
2018-07-20T16:56:06.918Z,53.60
2018-07-20T16:58:35.918Z,53.60
2018-07-20T17:01:04.819Z,53.60
2018-07-20T17:03:33.735Z,53.70
2018-07-20T17:06:02.600Z,53.10
2018-07-20T17:08:31.498Z,53.30
2018-07-20T17:11:00.416Z,51.80
2018-07-20T17:13:30.049Z,51.00
2018-07-20T17:15:58.940Z,49.90
2018-07-20T17:18:27.871Z,48.20
2018-07-20T17:20:56.870Z,48.90
2018-07-20T17:23:25.744Z,48.90
2018-07-20T17:25:54.628Z,48.20
2018-07-20T17:28:23.512Z,48.00
2018-07-20T17:30:52.384Z,48.20
2018-07-20T17:33:21.280Z,49.20
2018-07-20T17:35:50.187Z,49.80
2018-07-20T17:38:19.237Z,50.40
2018-07-20T17:40:48.507Z,48.70
2018-07-20T17:43:17.480Z,47.50
2018-07-20T17:48:14.916Z,44.80
2018-07-20T17:50:43.969Z,43.50
2018-07-20T17:53:12.866Z,42.70
2018-07-20T17:55:41.867Z,42.10
2018-07-20T17:58:10.773Z,41.80
2018-07-20T18:00:39.808Z,41.90
2018-07-20T18:03:08.833Z,42.70
2018-07-20T18:05:38.528Z,42.80
2018-07-20T18:08:07.453Z,43.90
2018-07-20T18:10:36.355Z,43.90
2018-07-20T18:13:05.303Z,44.30
2018-07-20T18:18:02.740Z,47.10
2018-07-20T18:20:31.644Z,47.80
2018-07-20T18:23:00.609Z,48.70
2018-07-20T18:25:30.120Z,48.50
2018-07-20T18:27:59.091Z,49.60
2018-07-20T18:30:27.957Z,50.30
2018-07-20T18:32:56.881Z,51.30
2018-07-20T18:35:25.772Z,51.50
2018-07-20T18:37:54.696Z,51.00
2018-07-20T18:40:24.792Z,51.20
2018-07-20T18:42:53.713Z,51.80
2018-07-20T18:45:22.596Z,52.20
2018-07-20T18:47:51.661Z,52.40
2018-07-20T18:50:20.617Z,52.50
2018-07-20T18:52:49.704Z,52.00
2018-07-20T18:57:47.641Z,51.50
2018-07-20T19:00:16.555Z,51.20
2018-07-20T19:02:45.537Z,51.50
2018-07-20T19:05:15.512Z,51.40
2018-07-20T19:07:44.530Z,51.70
2018-07-20T19:10:13.473Z,52.10
2018-07-20T19:15:10.912Z,52.50
2018-07-20T19:17:40.547Z,51.60
2018-07-20T19:25:06.531Z,53.00
2018-07-20T19:27:35.701Z,54.60
2018-07-20T19:32:33.242Z,56.30
2018-07-20T19:35:03.568Z,55.00
2018-07-20T19:37:32.481Z,55.70
2018-07-20T19:40:01.743Z,56.10
2018-07-20T19:42:31.143Z,56.40
2018-07-20T19:45:00.096Z,57.00
2018-07-20T19:47:29.040Z,58.00
2018-07-20T19:49:57.962Z,58.10
2018-07-20T19:52:26.855Z,57.90
2018-07-20T19:54:55.760Z,58.80
2018-07-20T19:57:24.892Z,58.80
2018-07-20T19:59:53.889Z,59.60
2018-07-20T20:02:22.863Z,60.40
2018-07-20T20:04:51.785Z,61.00
2018-07-20T20:07:20.869Z,61.70
2018-07-20T20:09:49.842Z,62.00
2018-07-20T20:12:18.730Z,62.30
2018-07-20T20:14:47.869Z,62.50
2018-07-20T20:17:16.812Z,63.00
2018-07-20T20:19:45.756Z,62.60
2018-07-20T20:22:14.892Z,63.00
2018-07-20T20:24:44.084Z,63.10
2018-07-20T20:29:41.642Z,64.60
2018-07-20T20:32:10.606Z,64.70
2018-07-20T20:34:39.750Z,65.30
2018-07-20T20:37:08.620Z,66.10
2018-07-20T20:39:37.529Z,67.30
2018-07-20T20:42:06.554Z,67.70
2018-07-20T20:44:35.447Z,68.40
2018-07-20T20:47:04.556Z,69.20
2018-07-20T20:49:33.497Z,69.60
2018-07-20T20:54:30.949Z,70.30
2018-07-20T20:56:59.948Z,70.60
2018-07-20T20:59:28.832Z,70.90
2018-07-20T21:01:57.729Z,71.00
2018-07-20T21:04:26.703Z,70.90
2018-07-20T21:06:56.263Z,71.00
2018-07-20T21:09:25.204Z,72.40
2018-07-20T21:11:54.167Z,73.60
2018-07-20T21:14:23.389Z,74.00
2018-07-20T21:16:52.285Z,74.00
2018-07-20T21:19:21.200Z,74.00
2018-07-20T21:21:50.187Z,73.80
2018-07-20T21:24:19.076Z,73.70
2018-07-20T21:26:48.013Z,73.80
2018-07-20T21:29:16.942Z,74.50
2018-07-20T21:31:45.852Z,74.20
2018-07-20T21:34:14.712Z,74.30
2018-07-20T21:36:43.712Z,74.60
2018-07-20T21:39:14.028Z,74.70
2018-07-20T21:41:43.670Z,74.70
2018-07-20T21:44:12.851Z,75.10
2018-07-20T21:46:41.768Z,75.70
2018-07-20T21:54:07.702Z,76.40
2018-07-20T21:56:36.619Z,76.60
2018-07-20T22:01:33.969Z,76.40
2018-07-20T22:04:03.779Z,76.40
2018-07-20T22:06:32.801Z,76.70
2018-07-20T22:11:30.234Z,76.30
2018-07-20T22:13:59.106Z,76.00
2018-07-20T22:16:28.544Z,76.70
2018-07-20T22:18:57.401Z,77.00
2018-07-20T22:21:26.322Z,77.30
2018-07-20T22:23:55.236Z,78.00
2018-07-20T22:26:24.128Z,78.70
2018-07-20T22:31:21.473Z,79.30
2018-07-20T22:33:50.360Z,79.20
2018-07-20T22:36:19.224Z,78.70
2018-07-20T22:38:48.137Z,78.30
2018-07-20T22:41:16.989Z,78.90
2018-07-20T22:43:45.937Z,79.40
2018-07-20T22:46:14.800Z,80.10
2018-07-20T22:48:43.736Z,80.30
2018-07-20T22:51:12.663Z,80.10
2018-07-20T22:53:41.561Z,80.00
2018-07-20T22:56:11.111Z,80.20
2018-07-20T22:58:40.005Z,80.40
2018-07-20T23:03:37.365Z,80.70
2018-07-20T23:06:06.287Z,80.70
2018-07-20T23:08:35.996Z,80.80
2018-07-20T23:11:04.971Z,81.00
2018-07-20T23:13:33.848Z,80.60
2018-07-20T23:16:02.739Z,80.30
2018-07-20T23:18:31.592Z,80.40
2018-07-20T23:21:01.058Z,80.50
2018-07-20T23:23:29.937Z,80.50
2018-07-20T23:28:27.284Z,80.50
2018-07-20T23:30:56.253Z,80.30
2018-07-20T23:33:25.197Z,80.50
2018-07-20T23:38:22.597Z,81.70
2018-07-20T23:40:51.492Z,81.60
2018-07-20T23:43:20.555Z,81.80
2018-07-20T23:50:46.409Z,81.90
2018-07-20T23:55:43.759Z,81.40
2018-07-20T23:58:12.635Z,81.10
